createdAt,value
2018-12-27T00:01:33.809Z,460.50
2018-12-27T00:04:05.157Z,445.25
2018-12-27T00:06:36.548Z,452.00
2018-12-27T00:09:09.079Z,458.75
2018-12-27T00:11:40.417Z,461.25
2018-12-27T00:14:12.791Z,441.50
2018-12-27T00:16:44.366Z,426.50
2018-12-27T00:19:15.973Z,478.50
2018-12-27T00:21:47.954Z,464.00
2018-12-27T00:24:19.312Z,418.00
2018-12-27T00:26:50.952Z,435.25
2018-12-27T00:29:23.367Z,475.75
2018-12-27T00:31:54.820Z,448.40
2018-12-27T00:34:26.048Z,450.75
2018-12-27T00:36:57.302Z,436.50
2018-12-27T00:39:28.430Z,435.25
2018-12-27T00:42:00.600Z,443.75
2018-12-27T00:44:32.382Z,416.75
2018-12-27T00:47:04.052Z,445.50
2018-12-27T00:49:35.961Z,423.50
2018-12-27T00:52:07.184Z,429.75
2018-12-27T00:54:38.461Z,433.25
2018-12-27T00:57:09.670Z,418.25
2018-12-27T00:59:40.985Z,419.25
2018-12-27T01:02:13.451Z,414.75
2018-12-27T01:04:44.759Z,426.50
2018-12-27T01:07:16.500Z,422.25
2018-12-27T01:09:47.885Z,414.00
2018-12-27T01:12:19.264Z,434.75
2018-12-27T01:14:51.173Z,434.25
2018-12-27T01:17:22.321Z,433.25
2018-12-27T01:19:53.671Z,453.25
2018-12-27T01:22:25.294Z,461.25
2018-12-27T01:24:56.974Z,484.60
2018-12-27T01:27:28.388Z,452.80
2018-12-27T01:29:59.845Z,471.00
2018-12-27T01:32:31.485Z,481.20
2018-12-27T01:35:03.161Z,458.60
2018-12-27T01:37:34.836Z,468.00
2018-12-27T01:40:06.236Z,471.60
2018-12-27T01:42:37.518Z,439.25
2018-12-27T01:45:09.370Z,459.50
2018-12-27T01:47:40.790Z,408.75
2018-12-27T01:50:12.332Z,433.25
2018-12-27T01:52:43.949Z,460.75
2018-12-27T01:55:15.688Z,440.50
2018-12-27T01:57:47.345Z,462.20
2018-12-27T02:00:19.066Z,484.60
2018-12-27T02:02:50.332Z,456.20
2018-12-27T02:05:22.022Z,436.00
2018-12-27T02:07:53.927Z,461.20
2018-12-27T02:10:25.185Z,464.20
2018-12-27T02:12:56.649Z,485.00
2018-12-27T02:15:28.517Z,490.80
2018-12-27T02:17:59.707Z,498.00
2018-12-27T02:20:31.425Z,471.60
2018-12-27T02:23:02.607Z,474.40
2018-12-27T02:25:34.051Z,528.00
2018-12-27T02:28:05.269Z,517.80
2018-12-27T02:30:36.601Z,500.40
2018-12-27T02:33:08.580Z,500.75
2018-12-27T02:35:40.452Z,501.25
2018-12-27T02:38:12.462Z,532.50
2018-12-27T02:40:43.805Z,531.00
2018-12-27T02:43:15.346Z,526.25
2018-12-27T02:45:46.957Z,525.00
2018-12-27T02:48:18.292Z,515.50
2018-12-27T02:50:49.840Z,532.60
2018-12-27T02:53:21.366Z,511.75
2018-12-27T02:55:52.940Z,537.00
2018-12-27T02:58:24.067Z,568.60
2018-12-27T03:00:55.149Z,551.25
2018-12-27T03:03:26.458Z,548.75
2018-12-27T03:05:57.950Z,514.60
2018-12-27T03:08:29.280Z,521.40
2018-12-27T03:11:00.520Z,509.60
2018-12-27T03:13:31.781Z,466.60
2018-12-27T03:16:03.385Z,462.40
2018-12-27T03:18:34.747Z,503.00
2018-12-27T03:21:06.060Z,496.80
2018-12-27T03:23:37.418Z,518.60
2018-12-27T03:26:08.575Z,484.40
2018-12-27T03:28:39.844Z,508.80
2018-12-27T03:31:11.102Z,488.20
2018-12-27T03:33:42.675Z,531.80
2018-12-27T03:36:14.248Z,538.40
2018-12-27T03:38:46.267Z,565.00
2018-12-27T03:41:17.719Z,578.00
2018-12-27T03:43:49.351Z,553.20
2018-12-27T03:46:21.325Z,535.80
2018-12-27T03:48:53.092Z,569.00
2018-12-27T03:51:24.419Z,585.80
2018-12-27T03:53:55.656Z,639.80
2018-12-27T03:56:27.325Z,619.00
2018-12-27T03:58:58.702Z,653.00
2018-12-27T04:01:29.917Z,663.60
2018-12-27T04:04:01.799Z,719.50
2018-12-27T04:06:33.223Z,709.67
2018-12-27T04:09:05.455Z,699.50
2018-12-27T04:11:36.728Z,718.50
2018-12-27T04:14:08.097Z,743.33
2018-12-27T04:16:40.039Z,708.50
2018-12-27T04:19:11.590Z,745.00
2018-12-27T04:21:42.958Z,743.33
2018-12-27T04:24:15.101Z,698.50
2018-12-27T04:26:46.371Z,700.67
2018-12-27T04:29:18.224Z,703.67
2018-12-27T04:31:50.797Z,654.60
2018-12-27T04:34:22.656Z,646.20
2018-12-27T04:36:56.194Z,631.40
2018-12-27T04:39:28.416Z,638.80
2018-12-27T04:42:00.400Z,626.00
2018-12-27T04:44:32.294Z,601.60
2018-12-27T04:47:04.778Z,596.67
2018-12-27T04:49:36.418Z,617.67
2018-12-27T04:52:08.110Z,600.20
2018-12-27T04:54:39.672Z,567.83
2018-12-27T04:57:11.000Z,491.80
2018-12-27T04:59:42.643Z,582.60
2018-12-27T05:02:13.949Z,576.80
2018-12-27T05:04:45.237Z,563.00
2018-12-27T05:07:16.551Z,539.80
2018-12-27T05:09:47.566Z,500.25
2018-12-27T05:12:18.768Z,496.00
2018-12-27T05:14:49.980Z,433.20
2018-12-27T05:17:21.873Z,403.25
2018-12-27T05:19:53.072Z,408.50
2018-12-27T05:22:24.261Z,392.00
2018-12-27T05:24:55.553Z,391.00
2018-12-27T05:27:26.583Z,363.25
2018-12-27T05:29:57.704Z,352.25
2018-12-27T05:32:28.863Z,389.75
2018-12-27T05:34:59.903Z,383.75
2018-12-27T05:37:31.529Z,328.75
2018-12-27T05:40:02.755Z,363.50
2018-12-27T05:42:34.590Z,377.00
2018-12-27T05:45:06.261Z,373.25
2018-12-27T05:47:38.082Z,380.50
2018-12-27T05:50:09.659Z,357.75
2018-12-27T05:52:43.077Z,343.00
2018-12-27T05:55:15.222Z,310.25
2018-12-27T05:57:47.141Z,314.75
2018-12-27T06:00:18.705Z,323.75
2018-12-27T06:02:50.117Z,271.50
2018-12-27T06:05:21.578Z,267.75
2018-12-27T06:07:52.946Z,266.00
2018-12-27T06:10:24.387Z,249.50
2018-12-27T06:12:55.632Z,255.75
2018-12-27T06:15:26.887Z,243.00
2018-12-27T06:17:58.527Z,221.25
2018-12-27T06:20:29.621Z,236.50
2018-12-27T06:23:01.162Z,218.75
2018-12-27T06:25:32.270Z,212.25
2018-12-27T06:28:03.933Z,208.00
2018-12-27T06:30:35.576Z,181.25
2018-12-27T06:33:07.236Z,170.00
2018-12-27T06:35:38.562Z,164.20
2018-12-27T06:38:10.119Z,164.80
2018-12-27T06:40:41.654Z,161.00
2018-12-27T06:43:13.261Z,136.00
2018-12-27T06:45:44.883Z,137.20
2018-12-27T06:48:16.830Z,168.00
2018-12-27T06:50:48.505Z,158.60
2018-12-27T06:53:20.246Z,148.00
2018-12-27T06:55:54.939Z,146.40
2018-12-27T06:58:29.373Z,151.80
2018-12-27T07:01:02.685Z,128.60
2018-12-27T07:03:36.304Z,145.00
2018-12-27T07:06:09.946Z,130.40
2018-12-27T07:08:45.222Z,140.20
2018-12-27T07:11:17.501Z,136.40
2018-12-27T07:13:52.009Z,150.20
2018-12-27T07:16:23.893Z,154.80
2018-12-27T07:18:55.692Z,150.20
2018-12-27T07:21:27.404Z,132.60
2018-12-27T07:23:58.682Z,138.20
2018-12-27T07:26:33.957Z,134.60
2018-12-27T07:29:05.653Z,130.20
2018-12-27T07:31:37.016Z,142.60
2018-12-27T07:34:08.278Z,132.20
2018-12-27T07:36:47.162Z,125.40
2018-12-27T07:39:18.390Z,139.40
2018-12-27T07:41:49.930Z,130.40
2018-12-27T07:44:21.120Z,129.00
2018-12-27T07:46:52.365Z,135.80
2018-12-27T07:49:24.049Z,118.20
2018-12-27T07:51:55.349Z,132.00
2018-12-27T07:54:29.026Z,120.40
2018-12-27T07:57:04.499Z,136.40
2018-12-27T07:59:35.753Z,128.20
2018-12-27T08:02:07.410Z,109.20
2018-12-27T08:04:38.785Z,119.80
2018-12-27T08:07:09.876Z,113.00
2018-12-27T08:09:41.631Z,110.40
2018-12-27T08:12:14.649Z,114.20
2018-12-27T08:14:45.915Z,103.60
2018-12-27T08:17:17.334Z,119.80
2018-12-27T08:19:49.069Z,111.00
2018-12-27T08:22:20.215Z,89.60
2018-12-27T08:24:51.465Z,103.60
2018-12-27T08:27:22.744Z,104.80
2018-12-27T08:29:54.213Z,106.20
2018-12-27T08:32:25.624Z,102.60
2018-12-27T08:34:57.921Z,113.60
2018-12-27T08:37:33.522Z,107.80
2018-12-27T08:40:06.629Z,115.00
2018-12-27T08:42:38.187Z,115.00
2018-12-27T08:45:09.695Z,117.40
2018-12-27T08:47:41.431Z,122.00
2018-12-27T08:50:13.498Z,75.20
2018-12-27T08:52:44.921Z,163.80
2018-12-27T08:55:16.440Z,150.00
2018-12-27T08:57:55.885Z,166.80
2018-12-27T09:00:28.013Z,142.80
2018-12-27T09:02:59.374Z,156.80
2018-12-27T09:05:30.925Z,137.40
2018-12-27T09:08:02.263Z,132.00
2018-12-27T09:10:33.735Z,127.80
2018-12-27T09:13:05.158Z,115.40
2018-12-27T09:15:36.922Z,112.80
2018-12-27T09:18:08.588Z,114.00
2018-12-27T09:20:41.797Z,111.60
2018-12-27T09:23:13.423Z,110.80
2018-12-27T09:25:45.641Z,115.00
2018-12-27T09:28:17.363Z,96.20
2018-12-27T09:30:48.824Z,110.20
2018-12-27T09:33:20.429Z,97.60
2018-12-27T09:35:56.950Z,109.40
2018-12-27T09:38:28.974Z,110.20
2018-12-27T09:41:00.320Z,101.40
2018-12-27T09:43:31.776Z,95.80
2018-12-27T09:46:08.176Z,101.40
2018-12-27T09:48:39.738Z,106.20
2018-12-27T09:51:11.563Z,96.80
2018-12-27T09:53:43.459Z,107.40
2018-12-27T09:56:14.894Z,106.00
2018-12-27T09:58:46.578Z,111.00
2018-12-27T10:01:18.155Z,120.20
2018-12-27T10:03:49.420Z,120.80
2018-12-27T10:06:20.810Z,111.80
2018-12-27T10:08:52.375Z,109.00
2018-12-27T10:11:23.985Z,105.40
2018-12-27T10:13:55.427Z,100.40
2018-12-27T10:16:26.913Z,115.20
2018-12-27T10:18:58.806Z,112.40
2018-12-27T10:21:33.678Z,113.40
2018-12-27T10:24:06.449Z,100.60
2018-12-27T10:26:37.936Z,116.40
2018-12-27T10:29:09.437Z,112.80
2018-12-27T10:31:40.835Z,112.20
2018-12-27T10:34:12.658Z,112.00
2018-12-27T10:36:44.484Z,118.80
2018-12-27T10:39:15.989Z,119.40
2018-12-27T10:41:47.333Z,119.60
2018-12-27T10:44:18.741Z,116.40
2018-12-27T10:46:49.815Z,116.00
2018-12-27T10:49:21.425Z,117.20
2018-12-27T10:51:53.101Z,110.20
2018-12-27T10:54:24.580Z,119.40
2018-12-27T10:56:55.813Z,115.00
2018-12-27T10:59:27.371Z,123.40
2018-12-27T11:01:58.722Z,122.40
2018-12-27T11:04:30.295Z,117.00
2018-12-27T11:07:01.597Z,123.60
2018-12-27T11:09:33.296Z,127.40
2018-12-27T11:12:04.703Z,131.00
2018-12-27T11:14:36.400Z,118.60
2018-12-27T11:17:07.920Z,115.60
2018-12-27T11:19:41.891Z,120.60
2018-12-27T11:22:13.877Z,122.00
2018-12-27T11:24:45.323Z,126.00
2018-12-27T11:27:16.797Z,120.40
2018-12-27T11:29:48.444Z,123.20
2018-12-27T11:32:20.307Z,130.60
2018-12-27T11:34:51.517Z,122.80
2018-12-27T11:37:23.218Z,126.00
2018-12-27T11:39:54.650Z,130.40
2018-12-27T11:42:25.882Z,130.80
2018-12-27T11:44:57.330Z,136.20
2018-12-27T11:47:28.597Z,128.00
2018-12-27T11:50:00.010Z,123.60
2018-12-27T11:52:31.930Z,122.60
2018-12-27T11:55:03.476Z,133.40
2018-12-27T11:57:34.797Z,132.00
2018-12-27T12:00:06.756Z,145.40
2018-12-27T12:02:38.050Z,139.00
2018-12-27T12:05:09.520Z,134.60
2018-12-27T12:07:40.806Z,147.60
2018-12-27T12:10:12.469Z,156.40
2018-12-27T12:12:44.149Z,170.00
2018-12-27T12:15:15.751Z,185.25
2018-12-27T12:17:47.242Z,197.50
2018-12-27T12:20:19.009Z,188.75
2018-12-27T12:22:50.744Z,209.50
2018-12-27T12:25:22.085Z,206.50
2018-12-27T12:27:53.712Z,220.75
2018-12-27T12:30:25.148Z,221.25
2018-12-27T12:32:56.667Z,220.25
2018-12-27T12:35:28.295Z,233.00
2018-12-27T12:38:00.612Z,234.75
2018-12-27T12:40:31.971Z,242.00
2018-12-27T12:43:03.197Z,224.00
2018-12-27T12:45:34.594Z,241.25
2018-12-27T12:48:06.063Z,263.25
2018-12-27T12:50:37.417Z,259.25
2018-12-27T12:53:10.524Z,248.75
2018-12-27T12:55:41.829Z,262.50
2018-12-27T12:58:13.563Z,267.25
2018-12-27T13:00:44.905Z,277.75
2018-12-27T13:03:16.341Z,286.25
2018-12-27T13:05:47.612Z,269.75
2018-12-27T13:08:19.316Z,266.50
2018-12-27T13:10:50.656Z,278.25
2018-12-27T13:13:21.934Z,266.75
2018-12-27T13:15:53.171Z,284.25
2018-12-27T13:18:24.470Z,266.25
2018-12-27T13:20:55.860Z,267.75
2018-12-27T13:23:27.395Z,266.25
2018-12-27T13:25:58.956Z,252.75
2018-12-27T13:28:30.222Z,279.75
2018-12-27T13:31:02.058Z,281.00
2018-12-27T13:33:33.630Z,259.00
2018-12-27T13:36:05.155Z,256.25
2018-12-27T13:38:36.668Z,251.75
2018-12-27T13:41:08.378Z,247.50
2018-12-27T13:43:39.750Z,245.25
2018-12-27T13:46:12.507Z,226.75
2018-12-27T13:48:44.247Z,226.25
2018-12-27T13:51:15.752Z,204.25
2018-12-27T13:53:47.239Z,204.25
2018-12-27T13:56:18.904Z,214.00
2018-12-27T13:58:50.302Z,207.25
2018-12-27T14:01:21.504Z,198.00
2018-12-27T14:03:52.758Z,210.75
2018-12-27T14:06:24.531Z,195.25
2018-12-27T14:08:56.253Z,195.50
2018-12-27T14:11:27.861Z,198.25
2018-12-27T14:13:59.442Z,211.75
2018-12-27T14:16:31.164Z,224.25
2018-12-27T14:19:02.537Z,216.75
2018-12-27T14:21:33.997Z,240.50
2018-12-27T14:24:09.761Z,234.25
2018-12-27T14:26:40.953Z,247.00
2018-12-27T14:29:12.409Z,239.00
2018-12-27T14:31:43.916Z,246.25
2018-12-27T14:34:16.701Z,263.50
2018-12-27T14:36:47.933Z,266.50
2018-12-27T14:39:19.923Z,257.25
2018-12-27T14:41:51.693Z,274.00
2018-12-27T14:44:22.963Z,254.00
2018-12-27T14:46:54.463Z,253.50
2018-12-27T14:49:25.862Z,253.50
2018-12-27T14:51:57.250Z,238.00
2018-12-27T14:54:29.251Z,230.00
2018-12-27T14:57:00.719Z,234.75
2018-12-27T14:59:31.936Z,240.75
2018-12-27T15:02:03.539Z,249.75
2018-12-27T15:04:35.253Z,248.50
2018-12-27T15:07:06.791Z,238.25
2018-12-27T15:09:38.059Z,258.25
2018-12-27T15:12:09.520Z,249.75
2018-12-27T15:14:40.687Z,257.75
2018-12-27T15:17:12.223Z,237.75
2018-12-27T15:19:43.453Z,254.00
2018-12-27T15:22:14.620Z,240.50
2018-12-27T15:24:46.500Z,257.75
2018-12-27T15:27:18.102Z,256.25
2018-12-27T15:29:54.010Z,273.75
2018-12-27T15:32:27.556Z,283.25
2018-12-27T15:34:59.120Z,260.50
2018-12-27T15:37:30.691Z,277.25
2018-12-27T15:40:02.171Z,282.50
2018-12-27T15:42:33.646Z,307.50
2018-12-27T15:45:05.257Z,290.25
2018-12-27T15:47:36.517Z,282.50
2018-12-27T15:50:08.331Z,283.00
2018-12-27T15:52:39.897Z,278.00
2018-12-27T15:55:11.458Z,293.25
2018-12-27T15:57:43.939Z,285.50
2018-12-27T16:00:15.508Z,292.75
2018-12-27T16:02:48.481Z,300.75
2018-12-27T16:05:19.761Z,293.25
2018-12-27T16:07:51.250Z,292.50
2018-12-27T16:10:22.521Z,304.50
2018-12-27T16:12:53.876Z,299.25
2018-12-27T16:15:25.223Z,289.00
2018-12-27T16:17:56.681Z,296.25
2018-12-27T16:20:28.104Z,297.00
2018-12-27T16:22:59.294Z,285.25
2018-12-27T16:25:31.038Z,298.25
2018-12-27T16:28:02.579Z,287.67
2018-12-27T16:30:34.118Z,288.25
2018-12-27T16:33:05.339Z,271.00
2018-12-27T16:35:36.829Z,265.75
2018-12-27T16:38:08.764Z,271.00
2018-12-27T16:40:40.389Z,254.00
2018-12-27T16:43:11.518Z,245.25
2018-12-27T16:45:43.107Z,231.75
2018-12-27T16:48:15.074Z,258.50
2018-12-27T16:50:46.502Z,276.75
2018-12-27T16:53:17.756Z,375.50
2018-12-27T16:55:49.566Z,326.25
2018-12-27T16:58:21.047Z,300.25
2018-12-27T17:00:52.337Z,298.00
2018-12-27T17:03:24.011Z,264.50
2018-12-27T17:05:56.479Z,270.00
2018-12-27T17:08:28.022Z,279.50
2018-12-27T17:10:59.360Z,276.25
2018-12-27T17:13:30.711Z,286.75
2018-12-27T17:16:02.189Z,277.50
2018-12-27T17:18:33.792Z,256.00
2018-12-27T17:21:05.168Z,259.00
2018-12-27T17:23:36.458Z,242.00
2018-12-27T17:26:08.423Z,253.50
2018-12-27T17:28:40.023Z,249.25
2018-12-27T17:31:11.415Z,244.25
2018-12-27T17:33:42.795Z,247.50
2018-12-27T17:36:14.255Z,252.25
2018-12-27T17:38:45.563Z,248.50
2018-12-27T17:41:16.727Z,298.50
2018-12-27T17:43:48.508Z,263.00
2018-12-27T17:46:20.335Z,234.00
2018-12-27T17:48:52.058Z,234.00
2018-12-27T17:51:23.303Z,240.25
2018-12-27T17:53:54.564Z,239.75
2018-12-27T17:56:27.219Z,235.00
2018-12-27T17:58:58.909Z,243.75
2018-12-27T18:01:30.647Z,242.00
2018-12-27T18:04:02.036Z,224.75
2018-12-27T18:06:33.299Z,252.50
2018-12-27T18:09:05.986Z,238.50
2018-12-27T18:11:37.640Z,241.00
2018-12-27T18:14:09.068Z,251.00
2018-12-27T18:16:40.524Z,234.50
2018-12-27T18:19:11.941Z,227.75
2018-12-27T18:21:43.381Z,251.75
2018-12-27T18:24:14.744Z,235.50
2018-12-27T18:26:46.671Z,236.00
2018-12-27T18:29:18.040Z,229.50
2018-12-27T18:31:49.216Z,226.00
2018-12-27T18:34:20.686Z,218.00
2018-12-27T18:36:51.947Z,205.50
2018-12-27T18:39:23.294Z,215.25
2018-12-27T18:41:54.446Z,206.50
2018-12-27T18:44:25.856Z,198.75
2018-12-27T18:46:57.417Z,202.00
2018-12-27T18:49:28.986Z,207.75
2018-12-27T18:52:00.692Z,210.50
2018-12-27T18:54:31.994Z,196.75
2018-12-27T18:57:03.633Z,202.50
2018-12-27T18:59:34.862Z,202.75
2018-12-27T19:02:06.431Z,206.75
2018-12-27T19:04:38.547Z,200.50
2018-12-27T19:07:09.971Z,195.50
2018-12-27T19:09:41.504Z,205.50
2018-12-27T19:12:47.873Z,190.50
2018-12-27T19:15:22.578Z,191.25
2018-12-27T19:18:23.315Z,187.25
2018-12-27T19:20:59.556Z,168.25
2018-12-27T19:23:31.803Z,173.50
2018-12-27T19:26:02.946Z,180.50
2018-12-27T19:28:34.757Z,177.00
2018-12-27T19:31:06.282Z,192.00
2018-12-27T19:33:38.513Z,181.75
2018-12-27T19:36:10.082Z,187.50
2018-12-27T19:38:41.497Z,187.00
2018-12-27T19:41:12.939Z,176.50
2018-12-27T19:43:44.338Z,173.50
2018-12-27T19:46:17.363Z,181.00
2018-12-27T19:48:51.448Z,179.00
2018-12-27T19:51:22.984Z,187.50
2018-12-27T19:53:54.505Z,171.75
2018-12-27T19:56:26.339Z,174.00
2018-12-27T19:58:57.814Z,186.00
2018-12-27T20:01:29.284Z,167.25
2018-12-27T20:04:00.490Z,185.00
2018-12-27T20:06:33.469Z,177.75
2018-12-27T20:09:06.633Z,172.75
2018-12-27T20:11:37.961Z,181.75
2018-12-27T20:14:09.172Z,156.75
2018-12-27T20:16:41.075Z,165.50
2018-12-27T20:19:12.326Z,175.50
2018-12-27T20:21:43.738Z,175.50
2018-12-27T20:24:14.944Z,151.40
2018-12-27T20:26:46.175Z,183.75
2018-12-27T20:29:17.959Z,181.60
2018-12-27T20:31:49.287Z,168.00
2018-12-27T20:34:20.346Z,179.00
2018-12-27T20:36:51.619Z,174.25
2018-12-27T20:39:22.844Z,173.75
2018-12-27T20:41:54.476Z,183.00
2018-12-27T20:44:25.744Z,167.60
2018-12-27T20:46:56.970Z,178.25
2018-12-27T20:49:28.520Z,161.25
2018-12-27T20:52:00.351Z,159.20
2018-12-27T20:54:31.557Z,181.75
2018-12-27T20:57:03.174Z,172.60
2018-12-27T20:59:35.237Z,162.60
2018-12-27T21:02:06.593Z,165.20
2018-12-27T21:04:38.511Z,177.20
2018-12-27T21:07:10.026Z,167.20
2018-12-27T21:09:41.241Z,173.60
2018-12-27T21:12:12.573Z,170.25
2018-12-27T21:14:44.241Z,165.50
2018-12-27T21:17:15.534Z,170.60
2018-12-27T21:19:46.873Z,165.80
2018-12-27T21:22:18.371Z,174.60
2018-12-27T21:24:50.018Z,159.80
2018-12-27T21:27:21.634Z,164.60
2018-12-27T21:29:53.534Z,172.40
2018-12-27T21:32:25.001Z,162.60
2018-12-27T21:34:56.817Z,164.60
2018-12-27T21:37:28.257Z,159.00
2018-12-27T21:39:59.498Z,153.80
2018-12-27T21:42:30.941Z,163.20
2018-12-27T21:45:02.220Z,159.00
2018-12-27T21:47:34.070Z,161.80
2018-12-27T21:50:05.709Z,155.60
2018-12-27T21:52:37.624Z,156.80
2018-12-27T21:55:08.999Z,158.60
2018-12-27T21:57:40.243Z,152.60
2018-12-27T22:00:12.249Z,148.60
2018-12-27T22:02:43.596Z,155.20
2018-12-27T22:05:14.904Z,153.40
2018-12-27T22:07:46.269Z,153.00
2018-12-27T22:10:17.529Z,142.80
2018-12-27T22:12:48.764Z,143.20
2018-12-27T22:15:19.966Z,160.00
2018-12-27T22:17:51.202Z,153.60
2018-12-27T22:20:22.255Z,150.20
2018-12-27T22:22:53.753Z,162.80
2018-12-27T22:25:24.947Z,149.00
2018-12-27T22:27:56.213Z,163.00
2018-12-27T22:30:28.404Z,136.80
2018-12-27T22:32:59.833Z,146.00
2018-12-27T22:35:30.987Z,146.60
2018-12-27T22:38:02.660Z,149.00
2018-12-27T22:40:34.129Z,153.80
2018-12-27T22:43:05.429Z,131.80
2018-12-27T22:45:36.771Z,151.40
2018-12-27T22:48:08.288Z,142.60
2018-12-27T22:50:39.605Z,150.60
2018-12-27T22:53:11.804Z,153.40
2018-12-27T22:55:55.890Z,145.40
2018-12-27T22:58:27.096Z,149.80
2018-12-27T23:00:59.899Z,158.00
2018-12-27T23:03:31.241Z,141.20
2018-12-27T23:06:02.566Z,154.20
2018-12-27T23:08:34.261Z,147.20
2018-12-27T23:11:06.122Z,143.00
2018-12-27T23:13:37.564Z,145.00
2018-12-27T23:16:09.126Z,133.80
2018-12-27T23:18:40.370Z,150.00
2018-12-27T23:21:11.540Z,143.60
2018-12-27T23:23:43.064Z,137.00
2018-12-27T23:26:14.523Z,148.00
2018-12-27T23:28:46.023Z,146.00
2018-12-27T23:31:18.194Z,147.40
2018-12-27T23:33:49.867Z,146.40
2018-12-27T23:36:21.401Z,150.60
2018-12-27T23:38:53.116Z,139.80
2018-12-27T23:41:24.904Z,148.40
2018-12-27T23:43:56.422Z,139.20
2018-12-27T23:46:27.730Z,141.20
2018-12-27T23:48:58.974Z,141.80
2018-12-27T23:51:30.510Z,145.60
2018-12-27T23:54:02.687Z,146.40
2018-12-27T23:56:34.156Z,139.20
2018-12-27T23:59:05.358Z,142.40
